Wetterdaten: Woche 09.05.22 - 15.05.22 (KW19)
Datum Zeit Temp. Aussen Temp. o. S. Temp +5cm Feuchte Auss Luftdruck Regen Sonnenschein Regendauer Solar Windben Empfang
09.05.2022 00:00 12,0 C 10,7 C 7,5 C 79 % 1027,1 hPa 0,0 l/m 0,00 h 0,00 h 0 W/m 0,0 km/h (0 Bft) 95,01 %
09.05.2022 01:00 11,0 C 9,7 C 6,9 C 82 % 1027,1 hPa 0,0 l/m 0,00 h 0,00 h 0 W/m 0,0 km/h (0 Bft) 97,29 %
09.05.2022 02:00 10,2 C 9,0 C 6,1 C 83 % 1026,9 hPa 0,0 l/m 0,00 h 0,00 h 0 W/m 0,0 km/h (0 Bft) 98,51 %
09.05.2022 03:00 9,6 C 9,2 C 6,2 C 84 % 1026,6 hPa 0,0 l/m 0,00 h 0,00 h 0 W/m 1,2 km/h (1 Bft) 98,51 %
09.05.2022 04:00 9,7 C 8,8 C 5,9 C 82 % 1026,5 hPa 0,0 l/m 0,00 h 0,00 h 0 W/m 0,5 km/h (0 Bft) 96,79 %
09.05.2022 05:00 9,2 C 8,3 C 5,4 C 83 % 1026,3 hPa 0,0 l/m 0,00 h 0,00 h 3 W/m 1,9 km/h (1 Bft) 96,09 %
09.05.2022 06:00 8,9 C 8,1 C 5,2 C 84 % 1026,3 hPa 0,0 l/m 0,00 h 0,00 h 18 W/m 0,6 km/h (0 Bft) 99,74 %
09.05.2022 07:00 9,4 C 9,5 C 6,1 C 85 % 1026,4 hPa 0,0 l/m 0,00 h 0,00 h 40 W/m 2,9 km/h (1 Bft) 96,66 %
09.05.2022 08:00 11,5 C 14,1 C 8,0 C 81 % 1026,5 hPa 0,0 l/m 0,90 h 0,00 h 317 W/m 3,5 km/h (1 Bft) 97,80 %
09.05.2022 09:00 15,7 C 21,1 C 14,1 C 71 % 1026,4 hPa 0,0 l/m 1,00 h 0,00 h 502 W/m 7,7 km/h (2 Bft) 98,84 %
09.05.2022 10:00 18,2 C 21,1 C 15,3 C 65 % 1026,2 hPa 0,0 l/m 1,00 h 0,00 h 636 W/m 11,1 km/h (2 Bft) 98,24 %
09.05.2022 11:00 20,0 C 21,6 C 16,0 C 64 % 1026,0 hPa 0,0 l/m 1,00 h 0,00 h 777 W/m 10,1 km/h (2 Bft) 96,76 %
09.05.2022 12:00 22,3 C 24,9 C 24,6 C 61 % 1025,6 hPa 0,0 l/m 1,00 h 0,00 h 851 W/m 8,2 km/h (2 Bft) 97,08 %
09.05.2022 13:00 23,8 C 25,8 C 22,4 C 58 % 1024,9 hPa 0,0 l/m 1,00 h 0,00 h 864 W/m 11,2 km/h (2 Bft) 97,29 %
09.05.2022 14:00 24,9 C 27,7 C 20,3 C 53 % 1024,3 hPa 0,0 l/m 1,00 h 0,00 h 870 W/m 10,0 km/h (2 Bft) 99,01 %
09.05.2022 15:00 25,3 C 27,9 C 20,4 C 52 % 1023,8 hPa 0,0 l/m 0,93 h 0,00 h 742 W/m 10,2 km/h (2 Bft) 95,96 %
09.05.2022 16:00 25,4 C 30,9 C 20,9 C 51 % 1023,3 hPa 0,0 l/m 0,97 h 0,00 h 688 W/m 8,7 km/h (2 Bft) 98,65 %
09.05.2022 17:00 25,6 C 29,6 C 20,8 C 50 % 1022,6 hPa 0,0 l/m 0,77 h 0,00 h 433 W/m 8,8 km/h (2 Bft) 98,36 %
09.05.2022 18:00 25,7 C 29,1 C 20,4 C 49 % 1022,1 hPa 0,0 l/m 0,90 h 0,00 h 290 W/m 6,2 km/h (2 Bft) 95,99 %
09.05.2022 19:00 24,7 C 23,8 C 19,1 C 53 % 1021,9 hPa 0,0 l/m 0,37 h 0,00 h 121 W/m 5,4 km/h (1 Bft) 97,66 %
09.05.2022 20:00 23,4 C 21,8 C 17,4 C 59 % 1021,8 hPa 0,0 l/m 0,13 h 0,00 h 30 W/m 1,8 km/h (1 Bft) 98,56 %
09.05.2022 21:00 21,5 C 18,8 C 14,6 C 69 % 1021,7 hPa 0,0 l/m 0,00 h 0,00 h 4 W/m 0,0 km/h (0 Bft) 96,18 %
09.05.2022 22:00 18,9 C 16,9 C 13,1 C 78 % 1021,8 hPa 0,0 l/m 0,00 h 0,00 h 0 W/m 0,1 km/h (0 Bft) 99,50 %
09.05.2022 23:00 17,6 C 15,9 C 12,3 C 82 % 1021,8 hPa 0,0 l/m 0,00 h 0,00 h 0 W/m 0,2 km/h (0 Bft) 97,51 %
10.05.2022 00:00 16,7 C 15,4 C 11,6 C 86 % 1021,4 hPa 0,0 l/m 0,00 h 0,00 h 0 W/m 0,0 km/h (0 Bft) 97,19 %
10.05.2022 01:00 15,9 C 14,4 C 11,1 C 88 % 1021,0 hPa 0,0 l/m 0,00 h 0,00 h 0 W/m 0,0 km/h (0 Bft) 97,94 %
10.05.2022 02:00 15,3 C 14,3 C 10,8 C 88 % 1020,6 hPa 0,0 l/m 0,00 h 0,00 h 0 W/m 0,3 km/h (0 Bft) 97,86 %
10.05.2022 03:00 14,9 C 14,0 C 10,6 C 88 % 1020,4 hPa 0,0 l/m 0,00 h 0,00 h 0 W/m 1,7 km/h (1 Bft) 97,65 %
10.05.2022 04:00 14,4 C 13,6 C 10,5 C 89 % 1020,0 hPa 0,0 l/m 0,00 h 0,00 h 0 W/m 3,3 km/h (1 Bft) 96,66 %
10.05.2022 05:00 13,9 C 13,1 C 10,0 C 89 % 1019,6 hPa 0,0 l/m 0,00 h 0,00 h 0 W/m 3,6 km/h (1 Bft) 99,93 %
10.05.2022 06:00 13,6 C 12,8 C 10,0 C 90 % 1019,4 hPa 0,0 l/m 0,00 h 0,00 h 20 W/m 6,3 km/h (2 Bft) 96,19 %
10.05.2022 07:00 13,9 C 13,7 C 10,4 C 90 % 1019,6 hPa 0,0 l/m 0,00 h 0,00 h 63 W/m 6,6 km/h (2 Bft) 97,51 %
10.05.2022 08:00 15,5 C 16,7 C 11,9 C 86 % 1019,4 hPa 0,0 l/m 0,83 h 0,00 h 265 W/m 11,8 km/h (2 Bft) 98,29 %
10.05.2022 09:00 18,3 C 20,2 C 15,7 C 78 % 1019,0 hPa 0,0 l/m 0,67 h 0,00 h 363 W/m 11,4 km/h (2 Bft) 96,09 %
10.05.2022 10:00 21,7 C 24,2 C 18,6 C 70 % 1018,6 hPa 0,0 l/m 0,73 h 0,00 h 502 W/m 13,9 km/h (3 Bft) 97,45 %
10.05.2022 11:00 23,8 C 24,5 C 20,5 C 58 % 1018,2 hPa 0,0 l/m 1,00 h 0,00 h 459 W/m 20,2 km/h (4 Bft) 99,42 %
10.05.2022 12:00 24,0 C 24,2 C 20,3 C 55 % 1017,9 hPa 0,0 l/m 0,30 h 0,00 h 369 W/m 21,4 km/h (4 Bft) 96,56 %
10.05.2022 13:00 25,0 C 26,0 C 22,6 C 53 % 1017,4 hPa 0,0 l/m 1,00 h 0,00 h 612 W/m 21,7 km/h (4 Bft) 97,85 %
10.05.2022 14:00 25,4 C 25,8 C 21,8 C 51 % 1016,7 hPa 0,0 l/m 0,77 h 0,00 h 439 W/m 23,4 km/h (4 Bft) 97,72 %
10.05.2022 15:00 25,9 C 26,2 C 21,9 C 50 % 1016,0 hPa 0,0 l/m 0,57 h 0,00 h 391 W/m 23,2 km/h (4 Bft) 99,22 %
10.05.2022 16:00 26,0 C 26,9 C 21,8 C 49 % 1015,3 hPa 0,0 l/m 0,73 h 0,00 h 451 W/m 21,0 km/h (4 Bft) 95,93 %
10.05.2022 17:00 25,7 C 26,1 C 21,5 C 50 % 1014,8 hPa 0,0 l/m 0,87 h 0,00 h 317 W/m 21,2 km/h (4 Bft) 98,01 %
10.05.2022 18:00 25,4 C 25,4 C 20,9 C 50 % 1014,5 hPa 0,0 l/m 0,20 h 0,00 h 184 W/m 14,9 km/h (3 Bft) 98,40 %
10.05.2022 19:00 25,0 C 24,1 C 20,2 C 53 % 1014,2 hPa 0,0 l/m 0,00 h 0,00 h 65 W/m 10,8 km/h (2 Bft) 96,65 %
10.05.2022 20:00 23,9 C 22,7 C 18,8 C 58 % 1014,2 hPa 0,0 l/m 0,00 h 0,00 h 23 W/m 6,5 km/h (2 Bft) 97,58 %
10.05.2022 21:00 21,7 C 20,3 C 16,6 C 63 % 1014,8 hPa 0,0 l/m 0,00 h 0,07 h 5 W/m 11,8 km/h (2 Bft) 99,80 %
10.05.2022 22:00 19,3 C 18,0 C 14,4 C 72 % 1015,3 hPa 0,0 l/m 0,00 h 0,07 h 0 W/m 5,4 km/h (1 Bft) 95,00 %
10.05.2022 23:00 18,4 C 17,4 C 13,8 C 71 % 1015,2 hPa 0,0 l/m 0,00 h 0,07 h 0 W/m 5,7 km/h (1 Bft) 99,15 %
11.05.2022 00:00 17,6 C 16,4 C 12,7 C 77 % 1015,0 hPa 0,0 l/m 0,00 h 0,07 h 0 W/m 0,7 km/h (0 Bft) 98,51 %
11.05.2022 01:00 17,2 C 16,2 C 12,8 C 81 % 1014,6 hPa 0,0 l/m 0,00 h 0,00 h 0 W/m 1,3 km/h (1 Bft) 95,80 %
11.05.2022 02:00 16,7 C 15,8 C 12,8 C 80 % 1014,1 hPa 0,0 l/m 0,00 h 0,00 h 0 W/m 3,5 km/h (1 Bft) 98,29 %
11.05.2022 03:00 16,6 C 15,6 C 12,5 C 80 % 1013,3 hPa 0,0 l/m 0,00 h 0,00 h 0 W/m 4,7 km/h (1 Bft) 97,72 %
11.05.2022 04:00 16,2 C 15,2 C 12,1 C 79 % 1012,8 hPa 0,0 l/m 0,00 h 0,00 h 0 W/m 4,9 km/h (1 Bft) 95,22 %
11.05.2022 05:00 15,8 C 14,9 C 11,7 C 79 % 1012,4 hPa 0,0 l/m 0,00 h 0,00 h 0 W/m 7,1 km/h (2 Bft) 98,29 %
11.05.2022 06:00 15,6 C 14,7 C 11,5 C 80 % 1012,1 hPa 0,0 l/m 0,00 h 0,00 h 23 W/m 5,8 km/h (2 Bft) 97,94 %
11.05.2022 07:00 16,0 C 15,6 C 12,1 C 79 % 1012,0 hPa 0,0 l/m 0,00 h 0,00 h 43 W/m 10,5 km/h (2 Bft) 96,30 %
11.05.2022 08:00 17,8 C 19,5 C 13,4 C 74 % 1012,1 hPa 0,0 l/m 0,87 h 0,00 h 331 W/m 8,8 km/h (2 Bft) 99,79 %
11.05.2022 09:00 20,0 C 24,3 C 18,7 C 66 % 1012,1 hPa 0,0 l/m 1,00 h 0,00 h 518 W/m 13,3 km/h (3 Bft) 97,08 %
11.05.2022 10:00 20,9 C 23,0 C 18,5 C 64 % 1012,0 hPa 0,0 l/m 1,00 h 0,00 h 663 W/m 13,3 km/h (3 Bft) 95,88 %
11.05.2022 11:00 22,0 C 23,5 C 18,4 C 61 % 1011,7 hPa 0,0 l/m 1,00 h 0,00 h 763 W/m 16,5 km/h (3 Bft) 98,46 %
11.05.2022 12:00 23,3 C 24,9 C 26,3 C 58 % 1011,3 hPa 0,0 l/m 1,00 h 0,00 h 844 W/m 22,9 km/h (4 Bft) 97,26 %
11.05.2022 13:00 24,3 C 25,6 C 23,4 C 55 % 1010,8 hPa 0,0 l/m 1,00 h 0,00 h 881 W/m 26,5 km/h (4 Bft) 97,90 %
11.05.2022 14:00 25,4 C 27,3 C 21,5 C 53 % 1010,3 hPa 0,0 l/m 1,00 h 0,00 h 859 W/m 23,3 km/h (4 Bft) 97,58 %
11.05.2022 15:00 26,4 C 28,5 C 21,8 C 52 % 1009,6 hPa 0,0 l/m 1,00 h 0,00 h 790 W/m 22,0 km/h (4 Bft) 97,51 %
11.05.2022 16:00 26,8 C 30,2 C 22,4 C 49 % 1009,1 hPa 0,0 l/m 1,00 h 0,00 h 676 W/m 19,2 km/h (3 Bft) 98,29 %
11.05.2022 17:00 26,7 C 29,7 C 22,6 C 47 % 1008,9 hPa 0,0 l/m 0,97 h 0,00 h 529 W/m 19,7 km/h (3 Bft) 95,86 %
11.05.2022 18:00 25,9 C 28,2 C 21,6 C 49 % 1008,8 hPa 0,0 l/m 0,90 h 0,00 h 334 W/m 21,0 km/h (4 Bft) 99,23 %
11.05.2022 19:00 24,6 C 24,0 C 20,0 C 52 % 1008,8 hPa 0,0 l/m 0,27 h 0,00 h 109 W/m 15,2 km/h (3 Bft) 97,87 %
11.05.2022 20:00 23,6 C 22,7 C 19,0 C 55 % 1009,0 hPa 0,0 l/m 0,00 h 0,00 h 33 W/m 10,7 km/h (2 Bft) 96,07 %
11.05.2022 21:00 23,2 C 22,3 C 18,5 C 56 % 1009,4 hPa 0,0 l/m 0,00 h 0,00 h 5 W/m 10,3 km/h (2 Bft) 98,74 %
11.05.2022 22:00 21,1 C 19,9 C 16,4 C 61 % 1010,0 hPa 0,0 l/m 0,00 h 0,00 h 0 W/m 11,1 km/h (2 Bft) 97,86 %
11.05.2022 23:00 19,6 C 18,5 C 15,2 C 63 % 1010,7 hPa 0,0 l/m 0,00 h 0,00 h 0 W/m 9,1 km/h (2 Bft) 96,03 %
12.05.2022 00:00 17,6 C 16,0 C 12,6 C 79 % 1011,9 hPa 2,0 l/m 0,00 h 0,73 h 0 W/m 16,5 km/h (3 Bft) 99,63 %
12.05.2022 01:00 15,5 C 14,3 C 10,8 C 93 % 1012,8 hPa 0,4 l/m 0,00 h 0,53 h 0 W/m 10,0 km/h (2 Bft) 96,73 %
12.05.2022 02:00 15,1 C 14,2 C 10,3 C 94 % 1013,8 hPa 0,2 l/m 0,00 h 0,10 h 0 W/m 11,2 km/h (2 Bft) 97,22 %
12.05.2022 03:00 13,8 C 12,8 C 8,9 C 91 % 1014,7 hPa 0,0 l/m 0,00 h 0,00 h 0 W/m 7,4 km/h (2 Bft) 97,11 %
12.05.2022 04:00 12,8 C 11,7 C 8,2 C 89 % 1015,7 hPa 0,0 l/m 0,00 h 0,00 h 0 W/m 4,9 km/h (1 Bft) 97,06 %
12.05.2022 05:00 11,9 C 10,7 C 7,3 C 91 % 1016,3 hPa 0,0 l/m 0,00 h 0,00 h 6 W/m 0,3 km/h (0 Bft) 97,14 %
12.05.2022 06:00 11,4 C 10,8 C 7,4 C 93 % 1017,1 hPa 0,0 l/m 0,00 h 0,00 h 22 W/m 1,2 km/h (1 Bft) 96,76 %
12.05.2022 07:00 12,1 C 12,0 C 8,6 C 93 % 1017,9 hPa 0,0 l/m 0,00 h 0,00 h 40 W/m 4,6 km/h (1 Bft) 99,15 %
12.05.2022 08:00 13,8 C 15,9 C 10,3 C 89 % 1018,7 hPa 0,0 l/m 0,90 h 0,00 h 328 W/m 9,0 km/h (2 Bft) 97,72 %
12.05.2022 09:00 15,7 C 19,5 C 14,7 C 82 % 1019,1 hPa 0,0 l/m 0,93 h 0,00 h 519 W/m 11,8 km/h (2 Bft) 97,43 %
12.05.2022 10:00 16,7 C 18,3 C 14,6 C 77 % 1019,5 hPa 0,0 l/m 0,77 h 0,00 h 541 W/m 12,6 km/h (3 Bft) 96,01 %
12.05.2022 11:00 18,0 C 19,5 C 15,0 C 69 % 1019,6 hPa 0,0 l/m 0,90 h 0,00 h 753 W/m 16,6 km/h (3 Bft) 97,73 %
12.05.2022 12:00 18,7 C 20,0 C 18,8 C 62 % 1019,5 hPa 0,0 l/m 0,63 h 0,00 h 599 W/m 17,0 km/h (3 Bft) 98,28 %
12.05.2022 13:00 19,4 C 20,9 C 18,2 C 59 % 1019,3 hPa 0,0 l/m 0,77 h 0,00 h 607 W/m 13,6 km/h (3 Bft) 98,72 %
12.05.2022 14:00 20,7 C 23,0 C 17,6 C 54 % 1019,0 hPa 0,0 l/m 1,00 h 0,00 h 812 W/m 14,2 km/h (3 Bft) 96,02 %
12.05.2022 15:00 20,8 C 22,1 C 17,3 C 52 % 1018,7 hPa 0,0 l/m 0,97 h 0,00 h 559 W/m 13,9 km/h (3 Bft) 98,93 %
12.05.2022 16:00 20,7 C 22,3 C 17,2 C 52 % 1018,4 hPa 0,0 l/m 1,00 h 0,00 h 469 W/m 12,3 km/h (3 Bft) 96,51 %
12.05.2022 17:00 21,0 C 23,1 C 17,3 C 51 % 1018,2 hPa 0,0 l/m 1,00 h 0,00 h 423 W/m 13,8 km/h (3 Bft) 99,29 %
12.05.2022 18:00 20,7 C 21,4 C 16,8 C 50 % 1017,9 hPa 0,0 l/m 0,97 h 0,00 h 241 W/m 12,8 km/h (3 Bft) 95,50 %
12.05.2022 19:00 20,0 C 19,7 C 16,0 C 52 % 1017,7 hPa 0,0 l/m 0,73 h 0,00 h 134 W/m 10,9 km/h (2 Bft) 98,65 %
12.05.2022 20:00 19,5 C 18,7 C 15,1 C 55 % 1017,7 hPa 0,0 l/m 0,43 h 0,00 h 52 W/m 6,7 km/h (2 Bft) 98,08 %
12.05.2022 21:00 17,9 C 16,2 C 12,6 C 64 % 1018,1 hPa 0,0 l/m 0,00 h 0,00 h 6 W/m 1,1 km/h (0 Bft) 96,73 %
12.05.2022 22:00 16,1 C 14,7 C 11,1 C 71 % 1018,4 hPa 0,0 l/m 0,00 h 0,00 h 0 W/m 2,0 km/h (1 Bft) 97,44 %
12.05.2022 23:00 15,3 C 14,1 C 10,8 C 72 % 1018,9 hPa 0,0 l/m 0,00 h 0,00 h 0 W/m 4,7 km/h (1 Bft) 97,91 %
13.05.2022 00:00 14,2 C 12,7 C 9,4 C 75 % 1019,1 hPa 0,0 l/m 0,00 h 0,00 h 0 W/m 1,1 km/h (0 Bft) 94,86 %
13.05.2022 01:00 12,8 C 11,5 C 8,4 C 81 % 1019,0 hPa 0,0 l/m 0,00 h 0,00 h 0 W/m 0,1 km/h (0 Bft) 95,23 %
13.05.2022 02:00 12,1 C 11,0 C 8,0 C 82 % 1018,9 hPa 0,0 l/m 0,00 h 0,00 h 0 W/m 0,9 km/h (0 Bft) 98,79 %
13.05.2022 03:00 11,6 C 10,8 C 7,8 C 80 % 1018,7 hPa 0,0 l/m 0,00 h 0,00 h 0 W/m 4,8 km/h (1 Bft) 97,60 %
13.05.2022 04:00 11,2 C 10,5 C 7,7 C 81 % 1018,8 hPa 0,0 l/m 0,00 h 0,00 h 0 W/m 8,2 km/h (2 Bft) 98,23 %
13.05.2022 05:00 10,6 C 9,8 C 6,9 C 81 % 1018,8 hPa 0,0 l/m 0,00 h 0,00 h 6 W/m 8,0 km/h (2 Bft) 96,65 %
13.05.2022 06:00 10,4 C 9,8 C 7,0 C 82 % 1018,9 hPa 0,0 l/m 0,00 h 0,00 h 24 W/m 10,0 km/h (2 Bft) 96,93 %
13.05.2022 07:00 11,0 C 10,8 C 7,6 C 83 % 1019,4 hPa 0,0 l/m 0,00 h 0,00 h 64 W/m 12,7 km/h (3 Bft) 99,86 %
13.05.2022 08:00 12,5 C 13,3 C 9,0 C 79 % 1019,9 hPa 0,0 l/m 0,93 h 0,00 h 305 W/m 14,4 km/h (3 Bft) 95,54 %
13.05.2022 09:00 14,1 C 15,2 C 11,5 C 75 % 1020,5 hPa 0,0 l/m 0,83 h 0,00 h 350 W/m 13,6 km/h (3 Bft) 97,29 %
13.05.2022 10:00 15,4 C 16,7 C 13,1 C 71 % 1020,7 hPa 0,0 l/m 0,93 h 0,00 h 475 W/m 14,8 km/h (3 Bft) 97,01 %
13.05.2022 11:00 16,7 C 18,0 C 13,6 C 68 % 1020,8 hPa 0,0 l/m 1,00 h 0,00 h 703 W/m 17,6 km/h (3 Bft) 98,93 %
13.05.2022 12:00 17,9 C 19,0 C 17,3 C 61 % 1020,9 hPa 0,0 l/m 0,70 h 0,00 h 666 W/m 17,4 km/h (3 Bft) 98,73 %
13.05.2022 13:00 18,8 C 20,1 C 17,1 C 58 % 1020,8 hPa 0,0 l/m 0,70 h 0,00 h 780 W/m 17,6 km/h (3 Bft) 96,65 %
13.05.2022 14:00 19,8 C 21,4 C 16,4 C 57 % 1020,8 hPa 0,0 l/m 0,73 h 0,00 h 687 W/m 16,3 km/h (3 Bft) 97,49 %
13.05.2022 15:00 20,8 C 22,8 C 16,7 C 54 % 1020,5 hPa 0,0 l/m 0,87 h 0,00 h 760 W/m 18,0 km/h (3 Bft) 97,72 %
13.05.2022 16:00 21,3 C 25,4 C 17,0 C 53 % 1020,3 hPa 0,0 l/m 1,00 h 0,00 h 736 W/m 15,1 km/h (3 Bft) 99,15 %
13.05.2022 17:00 21,5 C 25,6 C 17,5 C 53 % 1020,0 hPa 0,0 l/m 1,00 h 0,00 h 562 W/m 17,4 km/h (3 Bft) 96,65 %
13.05.2022 18:00 21,4 C 25,5 C 17,4 C 54 % 1020,0 hPa 0,0 l/m 1,00 h 0,00 h 369 W/m 11,8 km/h (2 Bft) 96,80 %
13.05.2022 19:00 20,4 C 20,2 C 15,9 C 57 % 1020,0 hPa 0,0 l/m 0,45 h 0,00 h 138 W/m 16,0 km/h (3 Bft) 98,61 %
13.05.2022 20:00 18,8 C 17,9 C 14,5 C 62 % 1020,2 hPa 0,0 l/m 0,00 h 0,00 h 30 W/m 10,3 km/h (2 Bft) 97,36 %
13.05.2022 21:00 17,4 C 16,2 C 12,9 C 66 % 1020,5 hPa 0,0 l/m 0,00 h 0,00 h 8 W/m 5,6 km/h (1 Bft) 97,23 %
13.05.2022 22:00 16,2 C 15,0 C 12,0 C 70 % 1020,8 hPa 0,0 l/m 0,00 h 0,00 h 0 W/m 4,6 km/h (1 Bft) 99,36 %
13.05.2022 23:00 15,3 C 14,2 C 11,1 C 74 % 1020,9 hPa 0,0 l/m 0,00 h 0,00 h 0 W/m 3,6 km/h (1 Bft) 97,15 %
14.05.2022 00:00 14,3 C 12,8 C 9,8 C 77 % 1021,1 hPa 0,0 l/m 0,00 h 0,00 h 0 W/m 2,9 km/h (1 Bft) 93,91 %
14.05.2022 01:00 12,9 C 11,8 C 8,7 C 83 % 1021,1 hPa 0,0 l/m 0,00 h 0,00 h 0 W/m 1,2 km/h (1 Bft) 98,15 %
14.05.2022 02:00 12,0 C 10,7 C 7,9 C 85 % 1021,1 hPa 0,0 l/m 0,00 h 0,00 h 0 W/m 0,4 km/h (0 Bft) 98,51 %
14.05.2022 03:00 11,6 C 10,7 C 7,8 C 86 % 1021,1 hPa 0,0 l/m 0,00 h 0,00 h 0 W/m 2,9 km/h (1 Bft) 96,47 %
14.05.2022 04:00 11,3 C 10,5 C 7,6 C 83 % 1021,1 hPa 0,0 l/m 0,00 h 0,00 h 0 W/m 3,0 km/h (1 Bft) 98,22 %
14.05.2022 05:00 10,8 C 10,0 C 7,2 C 83 % 1021,2 hPa 0,0 l/m 0,00 h 0,00 h 7 W/m 4,5 km/h (1 Bft) 97,36 %
14.05.2022 06:00 10,6 C 10,0 C 7,1 C 84 % 1021,4 hPa 0,0 l/m 0,00 h 0,00 h 22 W/m 4,3 km/h (1 Bft) 99,31 %
14.05.2022 07:00 10,8 C 10,5 C 7,5 C 84 % 1021,7 hPa 0,0 l/m 0,03 h 0,00 h 48 W/m 6,1 km/h (2 Bft) 96,23 %
14.05.2022 08:00 12,5 C 14,9 C 8,9 C 81 % 1022,1 hPa 0,0 l/m 0,97 h 0,00 h 335 W/m 8,0 km/h (2 Bft) 97,16 %
14.05.2022 09:00 15,3 C 20,4 C 12,4 C 74 % 1022,3 hPa 0,0 l/m 1,00 h 0,00 h 523 W/m 8,7 km/h (2 Bft) 96,79 %
14.05.2022 10:00 17,1 C 20,0 C 14,7 C 71 % 1022,2 hPa 0,0 l/m 1,00 h 0,00 h 677 W/m 9,5 km/h (2 Bft) 97,93 %
14.05.2022 11:00 18,8 C 21,1 C 14,9 C 68 % 1022,1 hPa 0,0 l/m 1,00 h 0,00 h 795 W/m 10,0 km/h (2 Bft) 98,15 %
14.05.2022 12:00 20,4 C 22,5 C 22,8 C 65 % 1021,9 hPa 0,0 l/m 0,83 h 0,00 h 770 W/m 11,0 km/h (2 Bft) 98,15 %
14.05.2022 13:00 20,7 C 22,6 C 19,6 C 63 % 1021,9 hPa 0,0 l/m 0,47 h 0,00 h 622 W/m 8,0 km/h (2 Bft) 97,37 %
14.05.2022 14:00 22,3 C 25,0 C 18,4 C 57 % 1021,7 hPa 0,0 l/m 0,90 h 0,00 h 829 W/m 12,4 km/h (3 Bft) 97,44 %
14.05.2022 15:00 23,1 C 26,6 C 18,3 C 53 % 1021,3 hPa 0,0 l/m 1,00 h 0,00 h 826 W/m 10,3 km/h (2 Bft) 96,93 %
14.05.2022 16:00 23,6 C 28,2 C 18,8 C 52 % 1020,9 hPa 0,0 l/m 0,93 h 0,00 h 668 W/m 9,5 km/h (2 Bft) 99,16 %
14.05.2022 17:00 23,6 C 28,5 C 19,3 C 51 % 1020,5 hPa 0,0 l/m 1,00 h 0,00 h 532 W/m 8,5 km/h (2 Bft) 94,51 %
14.05.2022 18:00 23,7 C 28,2 C 19,3 C 50 % 1020,2 hPa 0,0 l/m 1,00 h 0,00 h 357 W/m 5,7 km/h (1 Bft) 99,32 %
14.05.2022 19:00 22,7 C 23,2 C 17,9 C 52 % 1020,1 hPa 0,0 l/m 0,47 h 0,00 h 148 W/m 5,7 km/h (1 Bft) 98,07 %
14.05.2022 20:00 21,2 C 20,0 C 16,2 C 57 % 1020,1 hPa 0,0 l/m 0,00 h 0,00 h 34 W/m 5,2 km/h (1 Bft) 96,39 %
14.05.2022 21:00 19,7 C 18,4 C 14,5 C 62 % 1020,4 hPa 0,0 l/m 0,00 h 0,00 h 8 W/m 3,8 km/h (1 Bft) 98,43 %
14.05.2022 22:00 18,1 C 16,4 C 12,6 C 69 % 1020,6 hPa 0,0 l/m 0,00 h 0,00 h 0 W/m 0,4 km/h (0 Bft) 98,58 %
14.05.2022 23:00 16,3 C 14,7 C 11,1 C 76 % 1020,7 hPa 0,0 l/m 0,00 h 0,00 h 0 W/m 0,0 km/h (0 Bft) 95,94 %
15.05.2022 00:00 14,9 C 13,6 C 10,2 C 79 % 1020,6 hPa 0,0 l/m 0,00 h 0,00 h 0 W/m 0,0 km/h (0 Bft) 98,02 %
15.05.2022 01:00 13,9 C 12,8 C 9,4 C 82 % 1020,6 hPa 0,0 l/m 0,00 h 0,00 h 0 W/m 0,0 km/h (0 Bft) 98,79 %
15.05.2022 02:00 13,2 C 12,4 C 9,2 C 83 % 1020,4 hPa 0,0 l/m 0,00 h 0,00 h 0 W/m 1,7 km/h (1 Bft) 97,86 %
15.05.2022 03:00 12,8 C 12,0 C 8,7 C 83 % 1020,4 hPa 0,0 l/m 0,00 h 0,00 h 0 W/m 1,0 km/h (0 Bft) 96,44 %
15.05.2022 04:00 12,1 C 11,1 C 8,0 C 85 % 1020,3 hPa 0,0 l/m 0,00 h 0,00 h 0 W/m 0,0 km/h (0 Bft) 98,57 %
15.05.2022 05:00 11,4 C 10,2 C 7,4 C 87 % 1020,2 hPa 0,0 l/m 0,00 h 0,00 h 6 W/m 0,0 km/h (0 Bft) 97,86 %
15.05.2022 06:00 10,9 C 10,3 C 7,3 C 90 % 1020,1 hPa 0,0 l/m 0,00 h 0,00 h 22 W/m 0,0 km/h (0 Bft) 98,45 %
15.05.2022 07:00 11,5 C 11,9 C 8,5 C 91 % 1020,4 hPa 0,0 l/m 0,03 h 0,00 h 53 W/m 0,0 km/h (0 Bft) 94,49 %
15.05.2022 08:00 14,5 C 17,9 C 11,2 C 86 % 1020,4 hPa 0,0 l/m 1,00 h 0,00 h 302 W/m 0,0 km/h (0 Bft) 99,71 %
15.05.2022 09:00 19,2 C 24,4 C 17,5 C 68 % 1020,4 hPa 0,0 l/m 1,00 h 0,00 h 494 W/m 5,6 km/h (1 Bft) 97,23 %
15.05.2022 10:00 21,3 C 24,3 C 19,1 C 60 % 1020,0 hPa 0,0 l/m 1,00 h 0,00 h 661 W/m 8,7 km/h (2 Bft) 97,37 %
15.05.2022 11:00 23,1 C 25,9 C 18,6 C 54 % 1019,7 hPa 0,0 l/m 1,00 h 0,00 h 807 W/m 9,6 km/h (2 Bft) 96,86 %
15.05.2022 12:00 25,1 C 27,8 C 27,3 C 47 % 1019,2 hPa 0,0 l/m 1,00 h 0,00 h 881 W/m 9,8 km/h (2 Bft) 98,19 %
15.05.2022 13:00 26,3 C 28,2 C 25,9 C 45 % 1018,7 hPa 0,0 l/m 1,00 h 0,00 h 916 W/m 10,2 km/h (2 Bft) 97,65 %
15.05.2022 14:00 27,1 C 29,6 C 22,4 C 42 % 1018,0 hPa 0,0 l/m 0,97 h 0,00 h 854 W/m 11,4 km/h (2 Bft) 97,44 %
15.05.2022 15:00 27,7 C 30,7 C 22,5 C 41 % 1017,4 hPa 0,0 l/m 1,00 h 0,00 h 827 W/m 10,6 km/h (2 Bft) 97,44 %
15.05.2022 16:00 28,3 C 33,1 C 23,3 C 38 % 1016,9 hPa 0,0 l/m 1,00 h 0,00 h 710 W/m 10,1 km/h (2 Bft) 98,65 %
15.05.2022 17:00 28,8 C 34,2 C 24,1 C 38 % 1016,3 hPa 0,0 l/m 1,00 h 0,00 h 576 W/m 8,5 km/h (2 Bft) 95,68 %
15.05.2022 18:00 28,4 C 32,4 C 23,6 C 38 % 1015,7 hPa 0,0 l/m 1,00 h 0,00 h 399 W/m 9,4 km/h (2 Bft) 98,65 %
15.05.2022 19:00 26,8 C 27,0 C 21,6 C 45 % 1015,2 hPa 0,0 l/m 0,50 h 0,00 h 181 W/m 9,2 km/h (2 Bft) 98,79 %
15.05.2022 20:00 24,0 C 23,1 C 19,3 C 53 % 1015,0 hPa 0,0 l/m 0,00 h 0,00 h 34 W/m 10,2 km/h (2 Bft) 96,23 %
15.05.2022 21:00 21,9 C 20,6 C 17,2 C 58 % 1015,1 hPa 0,0 l/m 0,00 h 0,00 h 8 W/m 7,0 km/h (2 Bft) 98,65 %
15.05.2022 22:00 20,1 C 18,7 C 15,4 C 63 % 1015,4 hPa 0,0 l/m 0,00 h 0,00 h 0 W/m 4,7 km/h (1 Bft) 97,23 %
15.05.2022 23:00 18,7 C 16,9 C 13,7 C 69 % 1015,5 hPa 0,0 l/m 0,00 h 0,00 h 0 W/m 1,5 km/h (1 Bft) 97,01 %
Min-Datum _ 09.05.22 09.05.22 09.05.22 15.05.22 11.05.22 - - - - 09.05.22 14.05.22
_ Min-Zeit 06:26 06:08 05:32 18:04 18:04 - - - - 00:00 00:02
Minimum _ 8,8 C 7,8 C 5,0 C 36 % 1008,7 hPa - - - - 0,0 km/h (0 Bft) 10,53 %
Max-Datum _ 15.05.22 15.05.22 15.05.22 12.05.22 09.05.22 12.05.22 11.05.22 11.05.22 13.05.22 10.05.22 09.05.22
_ Max-Zeit 17:28 16:44 13:40 02:06 00:56 00:32 17:25 00:07 13:20 14:56 01:32
Maximum _ 29,1 C 35,6 C 31,1 C 95 % 1027,2 hPa 2,0 l/m 0,08 h 0,05 h 1125 W/m 57,9 km/h
S-SO (7 Bft)
100,00 %
Durchschnitt _ 18,4 C 19,0 C 14,6 C 68 % 1018,7 hPa #2,6 l/m #72:53 h #1:38 h 400 W/m 8,6 km/h (2 Bft) 97,55 %
© 2022 W. Hausmann